Time;durP1;ratioP1;P1;durP2;ratioP2;P2;SDS_P1;SDS_P2;PMS_P1;PMS_P2;Temp;Humidity;BMP_temperature;BMP_pressure;BME280_temperature;BME280_humidity;BME280_pressure;Samples;Min_cycle;Max_cycle;Signal;HPM_P1;HPM_P2
2021/07/28 00:01:38;;;;;;;;;;;;;;;-144.99;82.13;52276.88;5029290;28;20163;-56
2021/07/28 00:04:04;;;;;;;;;;;;;;;-144.99;82.67;52260.56;5032205;28;19931;-59
2021/07/28 00:06:31;;;;;;;;;;;;;;;-144.99;82.70;52276.88;5033428;28;19968;-62
2021/07/28 00:08:57;;;;;;;;;;;;;;;-144.99;82.69;52240.19;5036342;28;19932;-60
2021/07/28 00:11:23;;;;;;;;;;;;;;;-144.99;82.83;52234.09;5036003;28;19957;-60
2021/07/28 00:13:50;;;;;;;;;;;;;;;-144.99;82.82;52280.97;5031360;28;19960;-58
2021/07/28 00:16:16;;;;;;;;;;;;;;;-144.99;83.24;52293.19;5027149;28;19942;-58
2021/07/28 00:18:52;;;;;;;;;;;;;;;-144.99;83.18;52264.66;5034120;28;19945;-58
2021/07/28 00:24:02;;;;;;;;;;;;;;;-144.99;83.40;52268.72;5035105;28;19983;-57
2021/07/28 00:26:29;;;;;;;;;;;;;;;-144.99;83.39;52276.88;5027096;28;19946;-57
2021/07/28 00:28:55;;;;;;;;;;;;;;;-144.99;83.51;52260.56;5029183;28;19944;-57
2021/07/28 00:31:22;;;;;;;;;;;;;;;-144.99;83.56;52297.25;5029506;28;19978;-57
2021/07/28 00:33:50;;;;;;;;;;;;;;;-144.99;83.98;52280.97;5032839;28;19982;-57
2021/07/28 00:36:16;;;;;;;;;;;;;;;-144.99;84.23;52285.03;5024822;28;20292;-57
2021/07/28 00:38:42;;;;;;;;;;;;;;;-144.99;84.66;52256.50;5037045;28;19952;-59
2021/07/28 00:41:09;;;;;;;;;;;;;;;-144.99;84.94;52276.88;5036342;28;19969;-58
2021/07/28 00:43:35;;;;;;;;;;;;;;;-144.99;85.19;52268.72;5035928;28;19990;-59
2021/07/28 00:46:02;;;;;;;;;;;;;;;-144.99;85.35;52321.72;5033299;28;19937;-59
2021/07/28 00:48:28;;;;;;;;;;;;;;;-144.99;85.58;52289.13;5034454;28;19947;-59
2021/07/28 00:50:56;;;;;;;;;;;;;;;-144.99;85.81;52287.06;5034780;28;19958;-58
2021/07/28 00:53:22;;;;;;;;;;;;;;;-144.99;85.93;52260.56;5033359;28;19963;-60
2021/07/28 00:55:49;;;;;;;;;;;;;;;-144.99;86.26;52285.03;5033393;28;19955;-59
2021/07/28 00:58:16;;;;;;;;;;;;;;;-144.99;86.09;52256.50;5024458;28;19944;-59
2021/07/28 01:00:43;;;;;;;;;;;;;;;-144.99;86.02;52260.56;5027834;28;20360;-60
2021/07/28 01:03:09;;;;;;;;;;;;;;;-144.99;86.25;52232.03;5026461;28;19947;-59
2021/07/28 01:05:35;;;;;;;;;;;;;;;-144.99;86.33;52268.72;5028176;28;19966;-60
2021/07/28 01:08:05;;;;;;;;;;;;;;;-144.99;86.84;52280.97;5031385;28;19940;-59
2021/07/28 01:10:31;;;;;;;;;;;;;;;-144.99;86.94;52260.56;5026783;28;19998;-60
2021/07/28 01:12:58;;;;;;;;;;;;;;;-144.99;87.39;52280.97;5027161;28;20463;-62
2021/07/28 01:15:33;;;;;;;;;;;;;;;-144.99;87.62;52293.19;5031535;28;20012;-63
2021/07/28 01:18:01;;;;;;;;;;;;;;;-144.99;87.71;52240.19;5029736;28;20352;-63
2021/07/28 01:20:31;;;;;;;;;;;;;;;-144.99;87.88;52276.88;5028923;28;20088;-63
2021/07/28 01:22:58;;;;;;;;;;;;;;;-144.99;87.86;52256.50;5031929;28;19939;-63
2021/07/28 01:25:26;;;;;;;;;;;;;;;-144.99;87.85;52256.50;5028949;28;19949;-63
2021/07/28 01:27:53;;;;;;;;;;;;;;;-144.99;87.88;52268.72;5030886;28;19943;-63
2021/07/28 01:30:19;;;;;;;;;;;;;;;-144.99;87.87;52266.69;5030331;28;20395;-62
2021/07/28 01:32:47;;;;;;;;;;;;;;;-144.99;87.52;52280.97;5027807;28;19957;-62
2021/07/28 01:35:15;;;;;;;;;;;;;;;-144.99;87.88;52260.56;5033310;28;19932;-62
2021/07/28 01:37:43;;;;;;;;;;;;;;;-144.99;87.81;52301.34;5027576;28;19929;-63
2021/07/28 01:40:10;;;;;;;;;;;;;;;-144.99;87.88;52254.47;5027743;28;19958;-59
2021/07/28 01:42:40;;;;;;;;;;;;;;;-144.99;87.67;52289.13;5029855;28;19929;-60
2021/07/28 01:45:07;;;;;;;;;;;;;;;-144.99;87.05;52244.28;5026254;28;19948;-59
2021/07/28 01:47:33;;;;;;;;;;;;;;;-144.99;86.82;52260.56;5031226;28;20480;-59
2021/07/28 01:50:00;;;;;;;;;;;;;;;-144.99;87.13;52244.28;5032837;28;19957;-60
2021/07/28 01:52:26;;;;;;;;;;;;;;;-144.99;87.21;52232.03;5032807;28;19959;-60
2021/07/28 01:54:52;;;;;;;;;;;;;;;-144.99;87.18;52305.41;5024686;28;19937;-59
2021/07/28 01:57:19;;;;;;;;;;;;;;;-144.99;86.79;52268.72;5035767;28;19955;-59
2021/07/28 01:59:46;;;;;;;;;;;;;;;-144.99;86.55;52280.97;5029753;28;19953;-58
2021/07/28 02:02:13;;;;;;;;;;;;;;;-144.99;86.51;52272.81;5018808;28;19925;-58
2021/07/28 02:04:39;;;;;;;;;;;;;;;-144.99;86.28;52309.50;5030008;28;19941;-58
2021/07/28 02:07:05;;;;;;;;;;;;;;;-144.99;86.53;52262.63;5048755;22;20323;-61
2021/07/28 02:09:32;;;;;;;;;;;;;;;-144.99;86.46;52268.72;5032223;28;20444;-61
2021/07/28 02:11:58;;;;;;;;;;;;;;;-144.99;86.82;52254.47;5030508;28;19961;-61
2021/07/28 02:14:24;;;;;;;;;;;;;;;-144.99;86.71;52280.97;5031712;28;19968;-61
2021/07/28 02:16:52;;;;;;;;;;;;;;;-144.99;86.70;52264.66;5032210;28;19925;-59
2021/07/28 02:19:18;;;;;;;;;;;;;;;-144.99;87.10;52268.72;5031250;28;19956;-60
2021/07/28 02:21:45;;;;;;;;;;;;;;;-144.99;87.07;52293.19;5029283;28;21435;-60
2021/07/28 02:24:11;;;;;;;;;;;;;;;-144.99;87.28;52297.25;5032765;28;20319;-60
2021/07/28 02:26:37;;;;;;;;;;;;;;;-144.99;87.34;52291.16;5031588;28;20194;-60
2021/07/28 02:29:04;;;;;;;;;;;;;;;-144.99;87.39;52289.13;5032107;28;19940;-61
2021/07/28 02:31:30;;;;;;;;;;;;;;;-144.99;87.83;52293.19;5028097;28;20005;-61
2021/07/28 02:33:58;;;;;;;;;;;;;;;-144.99;88.21;52283.00;5025868;28;19972;-61
2021/07/28 02:36:24;;;;;;;;;;;;;;;-144.99;88.05;52250.38;5027970;28;19944;-61
2021/07/28 02:38:51;;;;;;;;;;;;;;;-144.99;87.99;52280.97;5026384;28;19992;-61
2021/07/28 02:41:17;;;;;;;;;;;;;;;-144.99;88.35;52285.03;5026721;28;20371;-61
2021/07/28 02:43:43;;;;;;;;;;;;;;;-144.99;88.14;52268.72;5028889;28;19943;-62
2021/07/28 02:46:10;;;;;;;;;;;;;;;-144.99;88.45;52280.97;5028061;28;19954;-61
2021/07/28 02:48:36;;;;;;;;;;;;;;;-144.99;88.76;52272.81;5027896;28;19977;-62
2021/07/28 02:51:04;;;;;;;;;;;;;;;-144.99;89.15;52283.00;5028127;28;19951;-61
2021/07/28 02:53:30;;;;;;;;;;;;;;;-144.99;89.20;52276.88;5030608;28;19959;-61
2021/07/28 02:55:56;;;;;;;;;;;;;;;-144.99;89.25;52227.97;5036350;28;19936;-61
2021/07/28 02:58:23;;;;;;;;;;;;;;;-144.99;90.05;52289.13;5032450;28;19982;-61
2021/07/28 03:00:50;;;;;;;;;;;;;;;-144.99;90.44;52264.66;5031372;28;19966;-61
2021/07/28 03:03:16;;;;;;;;;;;;;;;-144.99;90.61;52313.56;5027131;28;19953;-61
2021/07/28 03:05:43;;;;;;;;;;;;;;;-144.99;90.58;52262.63;5026219;28;20002;-59
2021/07/28 03:08:10;;;;;;;;;;;;;;;-144.99;90.73;52276.88;5027899;28;19942;-59
2021/07/28 03:10:37;;;;;;;;;;;;;;;-144.99;91.13;52313.56;5027483;28;20426;-59
2021/07/28 03:13:03;;;;;;;;;;;;;;;-144.99;91.42;52278.91;5024587;28;19962;-59
2021/07/28 03:15:29;;;;;;;;;;;;;;;-144.99;91.89;52303.38;5024335;28;19940;-59
2021/07/28 03:17:56;;;;;;;;;;;;;;;-144.99;91.82;52307.47;5024677;28;19941;-59
2021/07/28 03:20:22;;;;;;;;;;;;;;;-144.99;91.97;52297.25;5026459;28;19962;-59
2021/07/28 03:22:48;;;;;;;;;;;;;;;-144.99;92.35;52297.25;5026748;28;19942;-59
2021/07/28 03:25:16;;;;;;;;;;;;;;;-144.99;92.53;52303.38;5026999;28;19942;-62
2021/07/28 03:27:42;;;;;;;;;;;;;;;-144.99;92.73;52256.50;5026159;28;19952;-63
2021/07/28 03:30:09;;;;;;;;;;;;;;;-144.99;92.66;52252.44;5026427;28;20042;-62
2021/07/28 03:32:35;;;;;;;;;;;;;;;-144.99;93.32;52280.97;5025472;28;19949;-62
2021/07/28 03:35:02;;;;;;;;;;;;;;;-144.99;93.50;52268.72;5025573;28;19947;-62
2021/07/28 03:37:28;;;;;;;;;;;;;;;-144.99;93.68;52289.13;5027599;28;19946;-61
2021/07/28 03:40:01;;;;;;;;;;;;;;;-144.99;93.61;52285.03;5028011;28;19966;-62
2021/07/28 03:42:29;;;;;;;;;;;;;;;-144.99;94.11;52301.34;5023802;28;20419;-62
2021/07/28 03:44:55;;;;;;;;;;;;;;;-144.99;94.31;52285.03;5018128;28;19942;-61
2021/07/28 03:47:21;;;;;;;;;;;;;;;-144.99;95.22;52285.03;5025496;28;19945;-61
2021/07/28 03:49:48;;;;;;;;;;;;;;;-144.99;94.87;52293.19;5025847;28;19952;-61
2021/07/28 03:52:14;;;;;;;;;;;;;;;-144.99;95.11;52301.34;5027264;28;19950;-60
2021/07/28 03:54:40;;;;;;;;;;;;;;;-144.99;95.28;52285.03;5025530;28;19958;-60
2021/07/28 03:57:07;;;;;;;;;;;;;;;-144.99;95.21;52313.56;5024580;28;20384;-59
2021/07/28 03:59:34;;;;;;;;;;;;;;;-144.99;95.36;52264.66;5028162;28;19972;-60
2021/07/28 04:02:01;;;;;;;;;;;;;;;-144.99;95.70;52264.66;5026083;28;19938;-60
2021/07/28 04:04:27;;;;;;;;;;;;;;;-144.99;96.05;52276.88;5026767;28;20325;-59
2021/07/28 04:06:53;;;;;;;;;;;;;;;-144.99;96.15;52272.81;5022773;28;19950;-59
2021/07/28 04:09:20;;;;;;;;;;;;;;;-144.99;96.45;52305.41;5026504;28;19942;-59
2021/07/28 04:11:46;;;;;;;;;;;;;;;-144.99;96.38;52293.19;5026348;28;19959;-60
2021/07/28 04:14:12;;;;;;;;;;;;;;;-144.99;96.54;52276.88;5025250;28;19958;-60
2021/07/28 04:16:40;;;;;;;;;;;;;;;-144.99;97.04;52291.16;5023722;28;20322;-60
2021/07/28 04:19:07;;;;;;;;;;;;;;;-144.99;97.10;52293.19;5025347;28;19944;-61
2021/07/28 04:21:33;;;;;;;;;;;;;;;-144.99;96.92;52346.19;5026322;28;19962;-61
2021/07/28 04:23:59;;;;;;;;;;;;;;;-144.99;97.33;52325.81;5026288;28;19944;-61
2021/07/28 04:26:26;;;;;;;;;;;;;;;-144.99;97.22;52260.56;5023378;28;19959;-61
2021/07/28 04:28:52;;;;;;;;;;;;;;;-144.99;97.48;52336.00;5023223;28;19939;-61
2021/07/28 04:31:18;;;;;;;;;;;;;;;-144.99;97.69;52278.91;5025230;28;20428;-61
2021/07/28 04:33:46;;;;;;;;;;;;;;;-144.99;97.13;52260.56;5025118;28;19963;-61
2021/07/28 04:36:12;;;;;;;;;;;;;;;-144.99;96.88;52293.19;5023790;28;20326;-61
2021/07/28 04:38:39;;;;;;;;;;;;;;;-144.99;96.91;52301.34;5025050;28;19968;-61
2021/07/28 04:41:06;;;;;;;;;;;;;;;-144.99;96.80;52291.16;5025720;28;19974;-61
2021/07/28 04:43:32;;;;;;;;;;;;;;;-144.99;96.15;52289.13;5022702;28;19979;-61
2021/07/28 04:45:59;;;;;;;;;;;;;;;-144.99;95.72;52297.25;5026133;28;20411;-61
2021/07/28 04:48:25;;;;;;;;;;;;;;;-144.99;95.42;52248.34;5024610;28;19967;-66
2021/07/28 04:50:53;;;;;;;;;;;;;;;-144.99;94.61;52260.56;5023989;28;20441;-65
2021/07/28 04:53:19;;;;;;;;;;;;;;;-144.99;94.20;52289.13;5025302;28;20289;-66
2021/07/28 04:55:51;;;;;;;;;;;;;;;-144.99;93.20;52227.97;5023635;28;19949;-65
2021/07/28 04:58:17;;;;;;;;;;;;;;;-144.99;93.26;52256.50;5024486;28;19977;-65
2021/07/28 05:00:44;;;;;;;;;;;;;;;-144.99;92.77;52266.69;5023681;28;19961;-66
2021/07/28 05:03:25;;;;;;;;;;;;;;;-144.99;91.86;52293.19;4866009;28;10000233;-66
2021/07/28 05:05:52;;;;;;;;;;;;;;;-144.99;91.10;52244.28;5019241;28;19947;-65
2021/07/28 05:08:19;;;;;;;;;;;;;;;-144.99;90.81;52264.66;5021667;28;19947;-66
2021/07/28 05:10:47;;;;;;;;;;;;;;;-144.99;90.71;52276.88;5020925;28;19963;-66
2021/07/28 05:13:14;;;;;;;;;;;;;;;-144.99;90.45;52301.34;5020253;28;19961;-66
2021/07/28 05:15:40;;;;;;;;;;;;;;;-144.99;91.09;52280.97;5020509;28;19945;-66
2021/07/28 05:18:06;;;;;;;;;;;;;;;-144.99;90.54;52248.34;5022445;28;19947;-66
2021/07/28 05:20:32;;;;;;;;;;;;;;;-144.99;90.59;52280.97;5022738;28;20552;-66
2021/07/28 05:22:59;;;;;;;;;;;;;;;-144.99;90.29;52264.66;5022840;28;20445;-66
2021/07/28 05:25:28;;;;;;;;;;;;;;;-144.99;89.88;52280.97;5021571;28;19969;-65
2021/07/28 05:27:54;;;;;;;;;;;;;;;-144.99;89.70;52256.50;5018241;28;20395;-66
2021/07/28 05:30:20;;;;;;;;;;;;;;;-144.99;89.11;52268.72;5020173;28;19953;-66
2021/07/28 05:32:47;;;;;;;;;;;;;;;-144.99;88.77;52248.34;5018800;28;20412;-67
2021/07/28 05:35:13;;;;;;;;;;;;;;;-144.99;88.75;52252.44;5020483;28;20279;-65
2021/07/28 05:37:40;;;;;;;;;;;;;;;-144.99;88.98;52256.50;5018454;28;19949;-65
2021/07/28 05:40:06;;;;;;;;;;;;;;;-144.99;89.56;52199.44;5023740;28;19962;-66
2021/07/28 05:42:34;;;;;;;;;;;;;;;-144.99;89.65;52270.78;5025442;28;19968;-65
2021/07/28 05:45:01;;;;;;;;;;;;;;;-144.99;89.55;52256.50;5025774;28;20306;-66
2021/07/28 05:47:28;;;;;;;;;;;;;;;-144.99;89.90;52262.63;5024254;28;19948;-66
2021/07/28 05:49:54;;;;;;;;;;;;;;;-144.99;89.75;52293.19;5022007;28;21583;-69
2021/07/28 05:52:21;;;;;;;;;;;;;;;-144.99;89.34;52260.56;5025692;28;19944;-66
2021/07/28 05:54:47;;;;;;;;;;;;;;;-144.99;88.71;52236.13;5024284;28;19972;-69
2021/07/28 05:57:13;;;;;;;;;;;;;;;-144.99;88.07;52260.56;5024114;28;19929;-66
2021/07/28 05:59:41;;;;;;;;;;;;;;;-144.99;87.73;52264.66;5027463;28;19945;-66
2021/07/28 06:02:07;;;;;;;;;;;;;;;-144.99;87.05;52276.88;5030016;28;19946;-66
2021/07/28 06:04:34;;;;;;;;;;;;;;;-144.99;86.78;52268.72;5034001;28;19952;-66
2021/07/28 06:07:00;;;;;;;;;;;;;;;-144.99;86.79;52227.97;5025918;28;19962;-66
2021/07/28 06:09:26;;;;;;;;;;;;;;;-144.99;85.80;52236.13;5028100;28;19936;-64
2021/07/28 06:11:53;;;;;;;;;;;;;;;-144.99;84.77;52256.50;5026547;28;19929;-66
2021/07/28 06:14:19;;;;;;;;;;;;;;;-144.99;84.20;52242.22;5023530;28;19932;-64
2021/07/28 06:16:47;;;;;;;;;;;;;;;-144.99;83.55;52258.53;5026096;28;19939;-66
2021/07/28 06:19:13;;;;;;;;;;;;;;;-144.99;83.72;52268.72;5024943;28;19936;-65
2021/07/28 06:21:39;;;;;;;;;;;;;;;-144.99;83.24;52236.13;5023156;28;20461;-65
2021/07/28 06:24:06;;;;;;;;;;;;;;;-144.99;82.32;52236.13;4678625;28;9999766;-66
2021/07/28 06:26:32;;;;;;;;;;;;;;;-144.99;81.39;52248.34;5024210;28;20403;-66
2021/07/28 06:28:58;;;;;;;;;;;;;;;-144.99;81.54;52227.97;5024134;28;20629;-66
2021/07/28 06:31:25;;;;;;;;;;;;;;;-144.99;82.01;52264.66;5023566;28;20024;-68
2021/07/28 06:33:52;;;;;;;;;;;;;;;-144.99;80.13;52244.28;5025895;28;20713;-67
2021/07/28 06:36:19;;;;;;;;;;;;;;;-144.99;80.00;52230.00;5024867;28;19963;-69
2021/07/28 06:38:45;;;;;;;;;;;;;;;-144.99;80.34;52248.34;5024477;28;19946;-67
2021/07/28 06:41:11;;;;;;;;;;;;;;;-144.99;80.52;52238.16;5024131;28;19962;-68
2021/07/28 06:43:38;;;;;;;;;;;;;;;-144.99;79.76;52276.88;5025323;28;19952;-68
2021/07/28 06:46:04;;;;;;;;;;;;;;;-144.99;80.25;52244.28;5024093;28;19955;-68
2021/07/28 06:48:30;;;;;;;;;;;;;;;-144.99;80.43;52252.44;5025020;28;19940;-66
2021/07/28 06:50:58;;;;;;;;;;;;;;;-144.99;80.04;52244.28;5022424;28;19958;-66
2021/07/28 06:53:24;;;;;;;;;;;;;;;-144.99;80.32;52193.31;5025978;28;19945;-66
2021/07/28 06:55:51;;;;;;;;;;;;;;;-144.99;80.68;52272.81;5022439;28;20329;-67
2021/07/28 06:58:17;;;;;;;;;;;;;;;-144.99;81.07;52264.66;5024088;28;19959;-67
2021/07/28 07:00:44;;;;;;;;;;;;;;;-144.99;81.44;52242.22;5024053;28;19951;-67
2021/07/28 07:03:10;;;;;;;;;;;;;;;-144.99;81.38;52250.38;5023249;28;19982;-67
2021/07/28 07:05:36;;;;;;;;;;;;;;;-144.99;80.73;52227.97;5023588;28;20499;-62
2021/07/28 07:08:04;;;;;;;;;;;;;;;-144.99;81.02;52215.75;5024713;28;20380;-63
2021/07/28 07:10:31;;;;;;;;;;;;;;;-144.99;80.54;52256.50;5024974;28;19928;-62
2021/07/28 07:12:57;;;;;;;;;;;;;;;-144.99;79.67;52219.81;5022790;28;19965;-66
2021/07/28 07:15:23;;;;;;;;;;;;;;;-144.99;78.83;52213.69;5023793;28;19975;-67
2021/07/28 07:17:52;;;;;;;;;;;;;;;-144.99;78.95;52223.88;5024188;28;19969;-66
2021/07/28 07:20:18;;;;;;;;;;;;;;;-144.99;79.92;52215.75;5024408;28;19962;-67
2021/07/28 07:22:45;;;;;;;;;;;;;;;-144.99;78.96;52260.56;5026028;28;19968;-66
2021/07/28 07:25:13;;;;;;;;;;;;;;;-144.99;79.76;52240.19;5022616;28;19945;-67
2021/07/28 07:27:42;;;;;;;;;;;;;;;-144.99;80.37;52219.81;5022521;28;20369;-66
2021/07/28 07:30:09;;;;;;;;;;;;;;;-144.99;80.21;52195.34;5025701;28;19985;-66
2021/07/28 07:32:35;;;;;;;;;;;;;;;-144.99;79.56;52215.75;5024034;28;19937;-68
2021/07/28 07:35:02;;;;;;;;;;;;;;;-144.99;80.02;52215.75;5023406;28;19963;-67
2021/07/28 07:37:28;;;;;;;;;;;;;;;-144.99;79.84;52221.84;5021744;28;20577;-66
2021/07/28 07:39:55;;;;;;;;;;;;;;;-144.99;79.88;52223.88;5025525;28;19928;-67
2021/07/28 07:42:22;;;;;;;;;;;;;;;-144.99;79.19;52211.66;5024084;28;19943;-66
2021/07/28 07:44:49;;;;;;;;;;;;;;;-144.99;79.72;52244.28;5021643;28;19986;-66
2021/07/28 07:47:15;;;;;;;;;;;;;;;-144.99;79.62;52213.69;5026855;28;20365;-65
2021/07/28 07:49:42;;;;;;;;;;;;;;;-144.99;80.13;52264.66;5023126;28;19940;-65
2021/07/28 07:52:08;;;;;;;;;;;;;;;-144.99;80.49;52276.88;5023582;28;19996;-65
2021/07/28 07:54:35;;;;;;;;;;;;;;;-144.99;80.24;52240.19;5024655;28;19972;-65
2021/07/28 07:57:01;;;;;;;;;;;;;;;-144.99;79.44;52248.34;5026431;28;19936;-65
2021/07/28 07:59:29;;;;;;;;;;;;;;;-144.99;79.42;52244.28;5025383;28;19933;-66
2021/07/28 08:01:55;;;;;;;;;;;;;;;-144.99;79.60;52248.34;5021733;28;19948;-66
2021/07/28 08:04:23;;;;;;;;;;;;;;;-144.99;79.51;52252.44;5023381;28;19950;-66
2021/07/28 08:06:50;;;;;;;;;;;;;;;-144.99;79.32;52250.38;5022538;28;19964;-66
2021/07/28 08:09:16;;;;;;;;;;;;;;;-144.99;79.27;52270.78;5038513;22;19962;-70
2021/07/28 08:11:42;;;;;;;;;;;;;;;-144.99;79.35;52252.44;5021248;28;19966;-69
2021/07/28 08:14:09;;;;;;;;;;;;;;;-144.99;78.97;52256.50;5022343;28;19976;-68
2021/07/28 08:16:36;;;;;;;;;;;;;;;-144.99;78.45;52264.66;5023874;28;19929;-70
2021/07/28 08:19:03;;;;;;;;;;;;;;;-144.99;78.20;52223.88;5023131;28;19969;-70
2021/07/28 08:21:29;;;;;;;;;;;;;;;-144.99;78.27;52240.19;5017421;28;19936;-70
2021/07/28 08:23:55;;;;;;;;;;;;;;;-144.99;77.93;52227.97;5020901;28;20210;-70
2021/07/28 08:26:22;;;;;;;;;;;;;;;-144.99;77.38;52232.03;5024897;28;21280;-70
2021/07/28 08:28:48;;;;;;;;;;;;;;;-144.99;77.01;52248.34;5026058;28;19950;-69
2021/07/28 08:31:14;;;;;;;;;;;;;;;-144.99;76.67;52248.34;5019339;28;20402;-71
2021/07/28 08:33:42;;;;;;;;;;;;;;;-144.99;76.29;52221.84;5019601;28;20305;-71
2021/07/28 08:36:09;;;;;;;;;;;;;;;-144.99;75.74;52223.88;5024114;28;19925;-63
2021/07/28 08:38:35;;;;;;;;;;;;;;;-144.99;75.37;52211.66;5021311;28;19943;-70
2021/07/28 08:41:03;;;;;;;;;;;;;;;-144.99;75.49;52232.03;5019788;28;20203;-70
2021/07/28 08:43:30;;;;;;;;;;;;;;;-144.99;75.19;52244.28;5022414;28;19966;-69
2021/07/28 08:45:58;;;;;;;;;;;;;;;-144.99;75.18;52203.50;5021055;28;19942;-69
2021/07/28 08:48:24;;;;;;;;;;;;;;;-144.99;74.57;52199.44;5023837;28;19945;-69
2021/07/28 08:50:53;;;;;;;;;;;;;;;-144.99;74.05;52185.16;5022340;28;20065;-68
2021/07/28 08:53:19;;;;;;;;;;;;;;;-144.99;72.37;52223.88;5020349;28;19983;-68
2021/07/28 08:55:46;;;;;;;;;;;;;;;-144.99;71.19;52203.50;5023981;28;20236;-67
2021/07/28 08:58:14;;;;;;;;;;;;;;;-144.99;69.61;52207.59;5020219;28;20189;-67
2021/07/28 09:00:43;;;;;;;;;;;;;;;-144.99;69.77;52240.19;5019493;28;19970;-68
2021/07/28 09:03:10;;;;;;;;;;;;;;;-144.99;70.66;52217.78;5020117;28;19948;-71
2021/07/28 09:05:39;;;;;;;;;;;;;;;-144.99;69.46;52207.59;5020710;28;20372;-69
2021/07/28 09:08:08;;;;;;;;;;;;;;;-144.99;69.61;52203.50;5023022;28;19960;-69
2021/07/28 09:10:34;;;;;;;;;;;;;;;-144.99;68.96;52195.34;5017246;28;19969;-69
2021/07/28 09:13:01;;;;;;;;;;;;;;;-144.99;69.20;52162.75;5022738;28;19937;-70
2021/07/28 09:15:37;;;;;;;;;;;;;;;-144.99;68.21;52191.28;5029503;28;19960;-69
2021/07/28 09:18:24;;;;;;;;;;;;;;;-144.99;67.92;52146.44;5025416;28;19939;-68
2021/07/28 09:20:50;;;;;;;;;;;;;;;-144.99;67.50;52170.91;5025650;28;19963;-69
2021/07/28 09:23:18;;;;;;;;;;;;;;;-144.99;66.26;52166.81;5023704;28;20368;-69
2021/07/28 09:25:50;;;;;;;;;;;;;;;-144.99;63.42;52227.97;5026074;28;20034;-68
2021/07/28 09:28:18;;;;;;;;;;;;;;;-144.99;64.60;52187.19;5029874;28;19936;-67
2021/07/28 09:30:45;;;;;;;;;;;;;;;-144.99;63.26;52166.81;5025677;28;19929;-67
2021/07/28 09:33:11;;;;;;;;;;;;;;;-144.99;63.78;52179.06;5023244;28;19948;-67
2021/07/28 09:35:59;;;;;;;;;;;;;;;-144.99;63.21;52160.72;5020017;28;19940;-67
2021/07/28 09:38:28;;;;;;;;;;;;;;;-144.99;63.66;52179.06;4998279;28;19933;-68
2021/07/28 09:41:10;;;;;;;;;;;;;;;-144.99;63.44;52187.19;5023944;28;20397;-68
2021/07/28 09:43:42;;;;;;;;;;;;;;;-144.99;63.07;52179.06;5027432;28;19971;-68
2021/07/28 09:46:20;;;;;;;;;;;;;;;-144.99;63.12;52181.09;5020974;28;19929;-67
2021/07/28 09:48:46;;;;;;;;;;;;;;;-144.99;61.90;52179.06;5026082;28;19929;-67
2021/07/28 09:51:21;;;;;;;;;;;;;;;-144.99;61.58;52170.91;5027303;28;19956;-67
2021/07/28 09:53:52;;;;;;;;;;;;;;;-144.99;61.58;52158.66;5024038;28;19972;-68
2021/07/28 09:56:23;;;;;;;;;;;;;;;-144.99;61.47;52162.75;5025103;28;20395;-67
2021/07/28 09:58:49;;;;;;;;;;;;;;;-144.99;61.33;52195.34;5025346;28;20224;-67
2021/07/28 10:01:16;;;;;;;;;;;;;;;-144.99;61.02;52162.75;5023798;28;20358;-68
2021/07/28 10:03:42;;;;;;;;;;;;;;;-144.99;61.00;52146.44;5025737;28;20040;-67
2021/07/28 10:06:09;;;;;;;;;;;;;;;-144.99;61.27;52195.34;5023359;28;19936;-68
2021/07/28 10:08:35;;;;;;;;;;;;;;;-144.99;60.07;52185.16;5027085;28;19936;-67
2021/07/28 10:11:03;;;;;;;;;;;;;;;-144.99;60.57;52179.06;5026676;28;19933;-68
2021/07/28 10:13:30;;;;;;;;;;;;;;;-144.99;60.96;52146.44;5022384;28;19935;-68
2021/07/28 10:15:56;;;;;;;;;;;;;;;-144.99;60.44;52146.44;5022882;28;19973;-67
2021/07/28 10:18:23;;;;;;;;;;;;;;;-144.99;60.51;52142.38;5023753;28;19936;-67
2021/07/28 10:20:49;;;;;;;;;;;;;;;-144.99;59.14;52126.06;5025735;28;19933;-68
2021/07/28 10:23:16;;;;;;;;;;;;;;;-144.99;58.14;52132.19;5027989;28;19929;-66
2021/07/28 10:25:43;;;;;;;;;;;;;;;-144.99;58.77;52166.81;5025819;28;19939;-67
2021/07/28 10:28:10;;;;;;;;;;;;;;;-144.99;58.21;52130.13;5024816;28;19925;-66
2021/07/28 10:30:37;;;;;;;;;;;;;;;-144.99;58.22;52097.53;5026192;28;20031;-66
2021/07/28 10:33:23;;;;;;;;;;;;;;;-144.99;56.79;52105.69;5020885;28;19925;-68
2021/07/28 10:35:50;;;;;;;;;;;;;;;-144.99;56.96;52160.72;5025303;28;19956;-69
2021/07/28 10:38:20;;;;;;;;;;;;;;;-144.99;56.98;52146.44;5023133;28;20307;-67
2021/07/28 10:40:52;;;;;;;;;;;;;;;-144.99;57.41;52174.97;5026038;28;20299;-67
2021/07/28 10:43:20;;;;;;;;;;;;;;;-144.99;56.86;52164.78;5023185;28;19929;-67
2021/07/28 10:45:53;;;;;;;;;;;;;;;-144.99;56.53;52126.06;5023270;28;20039;-68
2021/07/28 10:48:38;;;;;;;;;;;;;;;-144.99;55.93;52154.59;5021605;28;19929;-68
2021/07/28 10:51:04;;;;;;;;;;;;;;;-144.99;55.15;52121.97;5023181;28;20306;-73
2021/07/28 10:53:45;;;;;;;;;;;;;;;-144.99;54.55;52117.91;5023341;28;19933;-75
2021/07/28 10:56:12;;;;;;;;;;;;;;;-144.99;54.44;52126.06;5018529;28;19940;-64
2021/07/28 10:58:39;;;;;;;;;;;;;;;-144.99;54.48;52158.66;5021095;28;19929;-64
2021/07/28 11:01:06;;;;;;;;;;;;;;;-144.99;53.98;52191.28;5024364;28;19933;-63
2021/07/28 11:03:35;;;;;;;;;;;;;;;-144.99;54.22;52191.28;5022747;28;20310;-64
2021/07/28 11:06:15;;;;;;;;;;;;;;;-144.99;53.25;52048.63;5019075;28;19925;-63
2021/07/28 11:08:42;;;;;;;;;;;;;;;-144.99;53.83;52126.06;5025770;28;20441;-63
2021/07/28 11:11:08;;;;;;;;;;;;;;;-144.99;53.49;52105.69;5029648;28;20350;-67
2021/07/28 11:13:34;;;;;;;;;;;;;;;-144.99;52.97;52138.28;5026503;28;19955;-66
2021/07/28 11:16:03;;;;;;;;;;;;;;;-144.99;53.53;52146.44;5023811;28;19975;-67
2021/07/28 11:18:33;;;;;;;;;;;;;;;-144.99;52.53;52130.13;5023502;28;20510;-66
2021/07/28 11:21:06;;;;;;;;;;;;;;;-144.99;52.38;52113.84;5024055;28;19938;-65
2021/07/28 11:23:40;;;;;;;;;;;;;;;-144.99;51.64;52113.84;5024612;28;20364;-65
2021/07/28 11:26:12;;;;;;;;;;;;;;;-144.99;52.00;52040.47;5023967;28;20357;-68
2021/07/28 11:28:38;;;;;;;;;;;;;;;-144.99;50.67;52134.22;5022888;28;19956;-67
2021/07/28 11:31:07;;;;;;;;;;;;;;;-144.99;50.24;52130.13;5024488;28;19944;-66
2021/07/28 11:33:34;;;;;;;;;;;;;;;-144.99;51.18;52117.91;5022094;28;19932;-66
2021/07/28 11:36:01;;;;;;;;;;;;;;;-144.99;51.05;52113.84;5017656;28;20372;-67
2021/07/28 11:38:28;;;;;;;;;;;;;;;-144.99;51.23;52073.06;5027597;28;20430;-64
2021/07/28 11:40:57;;;;;;;;;;;;;;;-144.99;51.42;52126.06;5028597;28;19937;-66
2021/07/28 11:43:23;;;;;;;;;;;;;;;-144.99;50.42;52046.56;5026665;28;20257;-66
2021/07/28 11:45:50;;;;;;;;;;;;;;;-144.99;49.69;51999.69;5022867;28;20016;-64
2021/07/28 11:48:34;;;;;;;;;;;;;;;-144.99;49.76;52052.69;5018740;28;19928;-65
2021/07/28 11:51:01;;;;;;;;;;;;;;;-144.99;50.41;52040.47;5022110;28;20008;-66
2021/07/28 11:53:27;;;;;;;;;;;;;;;-144.99;50.88;52044.53;5027345;28;20425;-66
2021/07/28 11:55:54;;;;;;;;;;;;;;;-144.99;50.87;52097.53;5024606;28;19936;-66
2021/07/28 11:58:21;;;;;;;;;;;;;;;-144.99;50.87;52109.75;5023951;28;19929;-66
2021/07/28 12:00:49;;;;;;;;;;;;;;;-144.99;52.78;52146.44;5016244;28;19929;-67
2021/07/28 12:03:23;;;;;;;;;;;;;;;-144.99;53.88;52158.66;5018787;28;19932;-66
2021/07/28 12:06:01;;;;;;;;;;;;;;;-144.99;55.35;52170.91;5029371;28;19929;-66
2021/07/28 12:08:34;;;;;;;;;;;;;;;-144.99;56.26;52162.75;5022592;28;19937;-65
2021/07/28 12:11:04;;;;;;;;;;;;;;;-144.99;56.48;52170.91;5021719;28;19928;-65
2021/07/28 12:13:41;;;;;;;;;;;;;;;-144.99;56.24;52146.44;5017618;28;19925;-66
2021/07/28 12:16:07;;;;;;;;;;;;;;;-144.99;55.95;52162.75;5023603;28;20364;-67
2021/07/28 12:18:43;;;;;;;;;;;;;;;-144.99;55.52;52134.22;5019468;28;19956;-66
2021/07/28 12:21:11;;;;;;;;;;;;;;;-144.99;54.18;52121.97;5017660;28;19924;-65
2021/07/28 12:23:48;;;;;;;;;;;;;;;-144.99;54.92;52073.06;5024458;28;19932;-65
2021/07/28 12:26:16;;;;;;;;;;;;;;;-144.99;54.71;52138.28;5023382;28;20414;-68
2021/07/28 12:28:51;;;;;;;;;;;;;;;-144.99;54.65;52036.38;5023375;28;19929;-66
2021/07/28 12:31:27;;;;;;;;;;;;;;;-144.99;53.59;52087.34;5022056;28;20298;-66